Grayson, LA

1:22 PM CST on January 16, 2017 (GMT -0600)
[WERK]bereich | | Change Station

Elev 161 ft 32.03 °N, 92.14 °W | Updated 6 minutes ago

Overcast
Overcast
72.9 °F
Feels Like 73 °F
N
2.5
Wind Variable Wind from ESE
Gusts 4.9 mph

Today
High -- | Low -- °F
--% Chance of Precip.
Yesterday
High -- | Low -- °F
Precip. -- in
Pressure 30.03 in
Visibility 10.0 miles
Clouds Scattered Clouds 1300 ft
Mostly Cloudy 2000 ft
Overcast 2600 ft
Heat Index 73 °F
Dew Point 67 °F
Humidity 81%
Rainfall 0.26 in
Snow Depth Not available.
7:09 AM 5:27 PM
Waning Gibbous, 79% visible
SPECI KMLU 161908Z 19011KT 10SM SCT013 BKN020 OVC026 22/19 A3003 RMK AO2 T02170189
Pressure 30.03 in
Visibility 10.0 miles
Clouds Scattered Clouds 1300 ft
Mostly Cloudy 2000 ft
Overcast 2600 ft
Heat Index 73 °F
Dew Point 67 °F
Humidity 81%
Rainfall 0.26 in
Snow Depth Not available.
7:09 AM 5:27 PM
Waning Gibbous, 79% visible
SPECI KMLU 161908Z 19011KT 10SM SCT013 BKN020 OVC026 22/19 A3003 RMK AO2 T02170189

Get Your Daily Forecast Email!

Thanks for signing up!

Be on the lookout for a verification email in your inbox.

You'll start receiving the daily forecast at 8 AM.

×

10-Day Weather Forecast

Almanac

Astronomy

Jan. 16, 2017 Rise Set
Actual Time
Civil Twilight
Nautical Twilight
Astronomical Twilight
Moon
Length of Visible Light
Length of Day
Tomorrow will be .
, % of the Moon is Illuminated

Today's Extremes

State Highs State Lows

Community

WunderPhotos

Upload Photos

1,962,540 photos uploaded!

WunderBlog® & News

Nearby

Air Quality

  Air Quality AQ Index Pollutant
Not available.

Snow Depth

Station Depth Elevation

Earthquake Activity

City Distance Mag. Time & Date
Minimum magnitude displayed is 2.5.

Coastal Water Temperatures

Place Temperature

Stations

Nearby Weather Stations

Station Location Temp. Windchill Dew Point Humidity Wind Precip. Elev Updated Type
                   

Watches & Warnings

There are currently no watches in effect.